sensor_id;sensor_type;location;lat;lon;timestamp;P1;durP1;ratioP1;P2;durP2;ratioP2
71236;SDS011;58984;51.960;5.582;2023-11-19T00:02:15;10.25;;;5.57;;
71236;SDS011;58984;51.960;5.582;2023-11-19T00:04:41;5.88;;;4.75;;
71236;SDS011;58984;51.960;5.582;2023-11-19T00:07:07;8.23;;;4.93;;
71236;SDS011;58984;51.960;5.582;2023-11-19T00:09:35;7.80;;;5.47;;
71236;SDS011;58984;51.960;5.582;2023-11-19T00:12:02;8.00;;;5.25;;
71236;SDS011;58984;51.960;5.582;2023-11-19T00:14:29;8.02;;;5.20;;
71236;SDS011;58984;51.960;5.582;2023-11-19T00:16:55;7.97;;;4.57;;
71236;SDS011;58984;51.960;5.582;2023-11-19T00:19:20;7.40;;;4.75;;
71236;SDS011;58984;51.960;5.582;2023-11-19T00:21:46;6.07;;;4.45;;
71236;SDS011;58984;51.960;5.582;2023-11-19T00:24:12;6.95;;;4.70;;
71236;SDS011;58984;51.960;5.582;2023-11-19T00:26:38;7.90;;;4.80;;
71236;SDS011;58984;51.960;5.582;2023-11-19T00:29:04;6.32;;;4.68;;
71236;SDS011;58984;51.960;5.582;2023-11-19T00:31:35;9.38;;;4.88;;
71236;SDS011;58984;51.960;5.582;2023-11-19T00:34:00;9.45;;;4.90;;
71236;SDS011;58984;51.960;5.582;2023-11-19T00:36:27;11.13;;;4.50;;
71236;SDS011;58984;51.960;5.582;2023-11-19T00:38:53;6.63;;;4.35;;
71236;SDS011;58984;51.960;5.582;2023-11-19T00:41:19;6.72;;;4.80;;
71236;SDS011;58984;51.960;5.582;2023-11-19T00:43:45;8.32;;;4.97;;
71236;SDS011;58984;51.960;5.582;2023-11-19T00:46:13;9.45;;;5.30;;
71236;SDS011;58984;51.960;5.582;2023-11-19T00:48:39;10.35;;;4.90;;
71236;SDS011;58984;51.960;5.582;2023-11-19T00:51:05;7.78;;;4.50;;
71236;SDS011;58984;51.960;5.582;2023-11-19T00:53:31;7.95;;;5.13;;
71236;SDS011;58984;51.960;5.582;2023-11-19T00:55:59;14.13;;;5.32;;
71236;SDS011;58984;51.960;5.582;2023-11-19T00:58:25;10.90;;;5.97;;
71236;SDS011;58984;51.960;5.582;2023-11-19T01:00:50;12.75;;;5.57;;
71236;SDS011;58984;51.960;5.582;2023-11-19T01:03:16;8.75;;;4.85;;
71236;SDS011;58984;51.960;5.582;2023-11-19T01:05:41;12.45;;;5.32;;
71236;SDS011;58984;51.960;5.582;2023-11-19T01:08:08;8.20;;;4.40;;
71236;SDS011;58984;51.960;5.582;2023-11-19T01:10:34;12.95;;;5.30;;
71236;SDS011;58984;51.960;5.582;2023-11-19T01:13:02;8.75;;;5.00;;
71236;SDS011;58984;51.960;5.582;2023-11-19T01:15:33;7.37;;;5.07;;
71236;SDS011;58984;51.960;5.582;2023-11-19T01:18:01;12.57;;;5.68;;
71236;SDS011;58984;51.960;5.582;2023-11-19T01:20:29;9.73;;;5.25;;
71236;SDS011;58984;51.960;5.582;2023-11-19T01:23:01;12.00;;;5.63;;
71236;SDS011;58984;51.960;5.582;2023-11-19T01:25:27;12.43;;;5.68;;
71236;SDS011;58984;51.960;5.582;2023-11-19T01:27:53;14.40;;;5.38;;
71236;SDS011;58984;51.960;5.582;2023-11-19T01:30:18;10.80;;;5.45;;
71236;SDS011;58984;51.960;5.582;2023-11-19T01:32:44;8.13;;;4.78;;
71236;SDS011;58984;51.960;5.582;2023-11-19T01:35:10;10.15;;;5.25;;
71236;SDS011;58984;51.960;5.582;2023-11-19T01:37:36;12.48;;;5.78;;
71236;SDS011;58984;51.960;5.582;2023-11-19T01:40:04;10.30;;;5.10;;
71236;SDS011;58984;51.960;5.582;2023-11-19T01:42:36;11.60;;;5.40;;
71236;SDS011;58984;51.960;5.582;2023-11-19T01:45:06;11.20;;;4.63;;
71236;SDS011;58984;51.960;5.582;2023-11-19T01:47:33;7.72;;;4.57;;
71236;SDS011;58984;51.960;5.582;2023-11-19T01:49:59;10.48;;;4.70;;
71236;SDS011;58984;51.960;5.582;2023-11-19T01:52:31;15.40;;;5.53;;
71236;SDS011;58984;51.960;5.582;2023-11-19T01:54:59;7.10;;;4.70;;
71236;SDS011;58984;51.960;5.582;2023-11-19T01:57:25;11.10;;;4.53;;
71236;SDS011;58984;51.960;5.582;2023-11-19T01:59:51;12.95;;;4.57;;
71236;SDS011;58984;51.960;5.582;2023-11-19T02:02:17;12.95;;;5.53;;
71236;SDS011;58984;51.960;5.582;2023-11-19T02:04:47;8.00;;;5.00;;
71236;SDS011;58984;51.960;5.582;2023-11-19T02:07:14;13.48;;;4.43;;
71236;SDS011;58984;51.960;5.582;2023-11-19T02:09:42;11.10;;;4.80;;
71236;SDS011;58984;51.960;5.582;2023-11-19T02:12:09;10.60;;;4.95;;
71236;SDS011;58984;51.960;5.582;2023-11-19T02:14:36;11.13;;;4.85;;
71236;SDS011;58984;51.960;5.582;2023-11-19T02:17:02;11.02;;;4.65;;
71236;SDS011;58984;51.960;5.582;2023-11-19T02:19:28;13.27;;;4.90;;
71236;SDS011;58984;51.960;5.582;2023-11-19T02:21:54;10.23;;;4.80;;
71236;SDS011;58984;51.960;5.582;2023-11-19T02:24:21;11.73;;;4.60;;
71236;SDS011;58984;51.960;5.582;2023-11-19T02:27:12;17.60;;;5.05;;
71236;SDS011;58984;51.960;5.582;2023-11-19T02:29:49;14.73;;;4.78;;
71236;SDS011;58984;51.960;5.582;2023-11-19T02:32:15;12.07;;;4.45;;
71236;SDS011;58984;51.960;5.582;2023-11-19T02:34:41;7.65;;;4.60;;
71236;SDS011;58984;51.960;5.582;2023-11-19T02:37:06;8.88;;;4.47;;
71236;SDS011;58984;51.960;5.582;2023-11-19T02:39:33;10.57;;;5.10;;
71236;SDS011;58984;51.960;5.582;2023-11-19T02:41:58;11.07;;;5.30;;
71236;SDS011;58984;51.960;5.582;2023-11-19T02:44:25;12.02;;;4.85;;
71236;SDS011;58984;51.960;5.582;2023-11-19T02:46:53;8.70;;;4.72;;
71236;SDS011;58984;51.960;5.582;2023-11-19T02:49:19;13.77;;;5.72;;
71236;SDS011;58984;51.960;5.582;2023-11-19T02:51:45;11.35;;;5.00;;
71236;SDS011;58984;51.960;5.582;2023-11-19T02:54:11;15.68;;;5.10;;
71236;SDS011;58984;51.960;5.582;2023-11-19T02:56:37;15.15;;;5.63;;
71236;SDS011;58984;51.960;5.582;2023-11-19T02:59:07;18.15;;;6.53;;
71236;SDS011;58984;51.960;5.582;2023-11-19T03:01:40;21.30;;;5.30;;
71236;SDS011;58984;51.960;5.582;2023-11-19T03:04:08;16.67;;;5.43;;
71236;SDS011;58984;51.960;5.582;2023-11-19T03:06:37;15.20;;;5.30;;
71236;SDS011;58984;51.960;5.582;2023-11-19T03:09:02;12.75;;;5.07;;
71236;SDS011;58984;51.960;5.582;2023-11-19T03:11:33;13.68;;;5.55;;
71236;SDS011;58984;51.960;5.582;2023-11-19T03:13:59;12.02;;;5.57;;
71236;SDS011;58984;51.960;5.582;2023-11-19T03:16:24;14.68;;;6.10;;
71236;SDS011;58984;51.960;5.582;2023-11-19T03:18:50;14.13;;;5.65;;
71236;SDS011;58984;51.960;5.582;2023-11-19T03:21:15;16.38;;;6.40;;
71236;SDS011;58984;51.960;5.582;2023-11-19T03:23:41;15.32;;;6.07;;
71236;SDS011;58984;51.960;5.582;2023-11-19T03:26:10;13.75;;;5.53;;
71236;SDS011;58984;51.960;5.582;2023-11-19T03:28:35;17.35;;;6.65;;
71236;SDS011;58984;51.960;5.582;2023-11-19T03:31:04;18.63;;;7.22;;
71236;SDS011;58984;51.960;5.582;2023-11-19T03:33:39;21.08;;;7.30;;
71236;SDS011;58984;51.960;5.582;2023-11-19T03:36:05;16.05;;;6.43;;
71236;SDS011;58984;51.960;5.582;2023-11-19T03:38:40;16.98;;;6.35;;
71236;SDS011;58984;51.960;5.582;2023-11-19T03:41:13;13.73;;;6.57;;
71236;SDS011;58984;51.960;5.582;2023-11-19T03:43:40;23.05;;;7.63;;
71236;SDS011;58984;51.960;5.582;2023-11-19T03:46:16;19.13;;;7.45;;
71236;SDS011;58984;51.960;5.582;2023-11-19T03:48:42;16.23;;;6.45;;
71236;SDS011;58984;51.960;5.582;2023-11-19T03:51:08;13.80;;;5.90;;
71236;SDS011;58984;51.960;5.582;2023-11-19T03:53:37;18.05;;;6.88;;
71236;SDS011;58984;51.960;5.582;2023-11-19T03:56:02;24.45;;;7.53;;
71236;SDS011;58984;51.960;5.582;2023-11-19T03:58:28;20.02;;;6.60;;
71236;SDS011;58984;51.960;5.582;2023-11-19T04:00:54;15.27;;;7.78;;
71236;SDS011;58984;51.960;5.582;2023-11-19T04:03:19;18.98;;;7.00;;
71236;SDS011;58984;51.960;5.582;2023-11-19T04:05:45;16.05;;;7.40;;
71236;SDS011;58984;51.960;5.582;2023-11-19T04:08:10;16.95;;;7.35;;
71236;SDS011;58984;51.960;5.582;2023-11-19T04:10:36;16.48;;;7.00;;
71236;SDS011;58984;51.960;5.582;2023-11-19T04:13:05;21.90;;;6.80;;
71236;SDS011;58984;51.960;5.582;2023-11-19T04:15:33;16.40;;;7.13;;
71236;SDS011;58984;51.960;5.582;2023-11-19T04:17:59;24.25;;;8.02;;
71236;SDS011;58984;51.960;5.582;2023-11-19T04:20:25;23.08;;;8.05;;
71236;SDS011;58984;51.960;5.582;2023-11-19T04:22:51;25.90;;;7.53;;
71236;SDS011;58984;51.960;5.582;2023-11-19T04:25:16;21.30;;;6.93;;
71236;SDS011;58984;51.960;5.582;2023-11-19T04:27:44;21.63;;;7.32;;
71236;SDS011;58984;51.960;5.582;2023-11-19T04:30:10;18.95;;;7.82;;
71236;SDS011;58984;51.960;5.582;2023-11-19T04:32:36;24.73;;;7.95;;
71236;SDS011;58984;51.960;5.582;2023-11-19T04:35:02;17.85;;;7.55;;
71236;SDS011;58984;51.960;5.582;2023-11-19T04:37:28;24.30;;;8.07;;
71236;SDS011;58984;51.960;5.582;2023-11-19T04:39:54;21.42;;;7.85;;
71236;SDS011;58984;51.960;5.582;2023-11-19T04:42:21;22.48;;;7.78;;
71236;SDS011;58984;51.960;5.582;2023-11-19T04:44:50;22.25;;;8.05;;
71236;SDS011;58984;51.960;5.582;2023-11-19T04:47:16;20.30;;;7.13;;
71236;SDS011;58984;51.960;5.582;2023-11-19T04:49:41;21.50;;;8.07;;
71236;SDS011;58984;51.960;5.582;2023-11-19T04:52:08;23.77;;;8.82;;
71236;SDS011;58984;51.960;5.582;2023-11-19T04:54:33;24.63;;;8.13;;
71236;SDS011;58984;51.960;5.582;2023-11-19T04:57:02;21.33;;;8.38;;
71236;SDS011;58984;51.960;5.582;2023-11-19T04:59:28;36.03;;;9.98;;
71236;SDS011;58984;51.960;5.582;2023-11-19T05:01:53;22.40;;;8.07;;
71236;SDS011;58984;51.960;5.582;2023-11-19T05:04:19;25.35;;;7.70;;
71236;SDS011;58984;51.960;5.582;2023-11-19T05:06:44;28.88;;;8.10;;
71236;SDS011;58984;51.960;5.582;2023-11-19T05:09:10;22.33;;;8.82;;
71236;SDS011;58984;51.960;5.582;2023-11-19T05:11:40;22.83;;;8.00;;
71236;SDS011;58984;51.960;5.582;2023-11-19T05:14:06;28.88;;;7.93;;
71236;SDS011;58984;51.960;5.582;2023-11-19T05:16:34;24.00;;;7.90;;
71236;SDS011;58984;51.960;5.582;2023-11-19T05:19:00;19.52;;;7.10;;
71236;SDS011;58984;51.960;5.582;2023-11-19T05:21:26;24.52;;;7.93;;
71236;SDS011;58984;51.960;5.582;2023-11-19T05:23:51;20.73;;;8.23;;
71236;SDS011;58984;51.960;5.582;2023-11-19T05:26:18;18.33;;;7.38;;
71236;SDS011;58984;51.960;5.582;2023-11-19T05:28:44;22.63;;;8.25;;
71236;SDS011;58984;51.960;5.582;2023-11-19T05:31:10;23.10;;;8.30;;
71236;SDS011;58984;51.960;5.582;2023-11-19T05:33:36;24.48;;;8.32;;
71236;SDS011;58984;51.960;5.582;2023-11-19T05:36:01;16.80;;;7.55;;
71236;SDS011;58984;51.960;5.582;2023-11-19T05:38:28;19.75;;;8.27;;
71236;SDS011;58984;51.960;5.582;2023-11-19T05:40:54;18.33;;;7.60;;
71236;SDS011;58984;51.960;5.582;2023-11-19T05:43:20;19.20;;;8.07;;
71236;SDS011;58984;51.960;5.582;2023-11-19T05:45:46;28.75;;;8.95;;
71236;SDS011;58984;51.960;5.582;2023-11-19T05:48:12;29.52;;;8.32;;
71236;SDS011;58984;51.960;5.582;2023-11-19T05:50:37;25.25;;;8.82;;
71236;SDS011;58984;51.960;5.582;2023-11-19T05:53:03;21.75;;;8.15;;
71236;SDS011;58984;51.960;5.582;2023-11-19T05:55:35;23.17;;;8.43;;
71236;SDS011;58984;51.960;5.582;2023-11-19T05:58:02;17.85;;;8.82;;
71236;SDS011;58984;51.960;5.582;2023-11-19T06:00:36;28.63;;;8.93;;
71236;SDS011;58984;51.960;5.582;2023-11-19T06:03:02;19.80;;;7.43;;
71236;SDS011;58984;51.960;5.582;2023-11-19T06:05:30;20.75;;;7.97;;
71236;SDS011;58984;51.960;5.582;2023-11-19T06:07:56;19.02;;;7.72;;
71236;SDS011;58984;51.960;5.582;2023-11-19T06:10:22;20.27;;;8.35;;
71236;SDS011;58984;51.960;5.582;2023-11-19T06:12:54;36.47;;;9.77;;
71236;SDS011;58984;51.960;5.582;2023-11-19T06:15:22;29.58;;;8.93;;
71236;SDS011;58984;51.960;5.582;2023-11-19T06:17:48;29.27;;;9.43;;
71236;SDS011;58984;51.960;5.582;2023-11-19T06:20:13;24.58;;;8.43;;
71236;SDS011;58984;51.960;5.582;2023-11-19T06:22:39;21.48;;;9.07;;
71236;SDS011;58984;51.960;5.582;2023-11-19T06:25:07;30.52;;;9.48;;
71236;SDS011;58984;51.960;5.582;2023-11-19T06:27:33;27.85;;;8.60;;
71236;SDS011;58984;51.960;5.582;2023-11-19T06:29:59;19.77;;;8.90;;
71236;SDS011;58984;51.960;5.582;2023-11-19T06:32:25;28.67;;;9.50;;
71236;SDS011;58984;51.960;5.582;2023-11-19T06:34:50;28.77;;;9.45;;
71236;SDS011;58984;51.960;5.582;2023-11-19T06:37:16;34.53;;;11.02;;
71236;SDS011;58984;51.960;5.582;2023-11-19T06:39:42;27.88;;;10.90;;
71236;SDS011;58984;51.960;5.582;2023-11-19T06:42:09;27.90;;;9.77;;
71236;SDS011;58984;51.960;5.582;2023-11-19T06:44:39;29.88;;;9.45;;
71236;SDS011;58984;51.960;5.582;2023-11-19T06:47:04;34.35;;;9.85;;
71236;SDS011;58984;51.960;5.582;2023-11-19T06:49:34;28.95;;;10.20;;
71236;SDS011;58984;51.960;5.582;2023-11-19T06:52:00;29.98;;;11.35;;
71236;SDS011;58984;51.960;5.582;2023-11-19T06:54:25;37.50;;;10.52;;
71236;SDS011;58984;51.960;5.582;2023-11-19T06:56:57;33.00;;;10.80;;
71236;SDS011;58984;51.960;5.582;2023-11-19T06:59:22;22.60;;;8.80;;
71236;SDS011;58984;51.960;5.582;2023-11-19T07:01:48;26.98;;;9.25;;
71236;SDS011;58984;51.960;5.582;2023-11-19T07:04:14;27.98;;;10.10;;
71236;SDS011;58984;51.960;5.582;2023-11-19T07:06:39;31.80;;;10.80;;
71236;SDS011;58984;51.960;5.582;2023-11-19T07:09:06;32.47;;;11.15;;
71236;SDS011;58984;51.960;5.582;2023-11-19T07:11:38;28.60;;;9.07;;
71236;SDS011;58984;51.960;5.582;2023-11-19T07:14:05;36.60;;;10.77;;
71236;SDS011;58984;51.960;5.582;2023-11-19T07:16:34;24.20;;;9.60;;
71236;SDS011;58984;51.960;5.582;2023-11-19T07:19:02;27.58;;;9.77;;
71236;SDS011;58984;51.960;5.582;2023-11-19T07:21:28;26.70;;;9.68;;
71236;SDS011;58984;51.960;5.582;2023-11-19T07:23:57;25.95;;;10.05;;
71236;SDS011;58984;51.960;5.582;2023-11-19T07:26:23;33.42;;;10.90;;
71236;SDS011;58984;51.960;5.582;2023-11-19T07:28:49;27.48;;;10.32;;
71236;SDS011;58984;51.960;5.582;2023-11-19T07:31:15;35.13;;;9.38;;
71236;SDS011;58984;51.960;5.582;2023-11-19T07:33:41;30.55;;;10.65;;
71236;SDS011;58984;51.960;5.582;2023-11-19T07:36:08;35.40;;;10.50;;
71236;SDS011;58984;51.960;5.582;2023-11-19T07:38:34;28.52;;;8.75;;
71236;SDS011;58984;51.960;5.582;2023-11-19T07:40:59;25.98;;;9.25;;
71236;SDS011;58984;51.960;5.582;2023-11-19T07:43:25;28.73;;;9.73;;
71236;SDS011;58984;51.960;5.582;2023-11-19T07:45:51;20.73;;;8.00;;
71236;SDS011;58984;51.960;5.582;2023-11-19T07:48:17;27.35;;;8.73;;
71236;SDS011;58984;51.960;5.582;2023-11-19T07:50:47;25.35;;;8.90;;
71236;SDS011;58984;51.960;5.582;2023-11-19T07:53:15;31.88;;;9.63;;
71236;SDS011;58984;51.960;5.582;2023-11-19T07:55:44;21.38;;;9.45;;
71236;SDS011;58984;51.960;5.582;2023-11-19T07:58:10;21.50;;;8.52;;
71236;SDS011;58984;51.960;5.582;2023-11-19T08:00:37;23.25;;;7.95;;
71236;SDS011;58984;51.960;5.582;2023-11-19T08:03:03;26.98;;;8.82;;
71236;SDS011;58984;51.960;5.582;2023-11-19T08:05:29;32.85;;;9.07;;
71236;SDS011;58984;51.960;5.582;2023-11-19T08:07:58;27.05;;;9.90;;
71236;SDS011;58984;51.960;5.582;2023-11-19T08:10:23;23.65;;;8.95;;
71236;SDS011;58984;51.960;5.582;2023-11-19T08:12:49;19.65;;;8.02;;
71236;SDS011;58984;51.960;5.582;2023-11-19T08:15:15;19.48;;;8.10;;
71236;SDS011;58984;51.960;5.582;2023-11-19T08:17:41;22.52;;;7.70;;
71236;SDS011;58984;51.960;5.582;2023-11-19T08:20:08;23.38;;;7.88;;
71236;SDS011;58984;51.960;5.582;2023-11-19T08:22:38;26.27;;;7.57;;
71236;SDS011;58984;51.960;5.582;2023-11-19T08:25:07;18.20;;;7.80;;
71236;SDS011;58984;51.960;5.582;2023-11-19T08:27:39;27.08;;;9.23;;
71236;SDS011;58984;51.960;5.582;2023-11-19T08:30:05;28.40;;;7.93;;
71236;SDS011;58984;51.960;5.582;2023-11-19T08:32:37;20.02;;;8.20;;
71236;SDS011;58984;51.960;5.582;2023-11-19T08:35:28;26.70;;;8.13;;
71236;SDS011;58984;51.960;5.582;2023-11-19T08:38:38;26.15;;;8.65;;
71236;SDS011;58984;51.960;5.582;2023-11-19T08:45:12;24.45;;;7.68;;
71236;SDS011;58984;51.960;5.582;2023-11-19T08:47:40;28.33;;;8.90;;
71236;SDS011;58984;51.960;5.582;2023-11-19T08:50:06;23.58;;;8.07;;
71236;SDS011;58984;51.960;5.582;2023-11-19T08:52:39;23.02;;;7.45;;
71236;SDS011;58984;51.960;5.582;2023-11-19T08:55:05;20.90;;;7.05;;
71236;SDS011;58984;51.960;5.582;2023-11-19T08:57:31;17.98;;;6.57;;
71236;SDS011;58984;51.960;5.582;2023-11-19T08:59:57;21.77;;;7.35;;
71236;SDS011;58984;51.960;5.582;2023-11-19T09:02:23;19.98;;;7.72;;
71236;SDS011;58984;51.960;5.582;2023-11-19T09:04:52;17.55;;;6.80;;
71236;SDS011;58984;51.960;5.582;2023-11-19T09:07:18;22.38;;;7.78;;
71236;SDS011;58984;51.960;5.582;2023-11-19T09:09:44;17.90;;;7.15;;
71236;SDS011;58984;51.960;5.582;2023-11-19T09:12:09;18.70;;;7.40;;
71236;SDS011;58984;51.960;5.582;2023-11-19T09:14:40;20.92;;;6.88;;
71236;SDS011;58984;51.960;5.582;2023-11-19T09:17:09;20.77;;;8.07;;
71236;SDS011;58984;51.960;5.582;2023-11-19T09:19:42;20.35;;;7.63;;
71236;SDS011;58984;51.960;5.582;2023-11-19T09:22:11;17.00;;;6.78;;
71236;SDS011;58984;51.960;5.582;2023-11-19T09:24:36;22.60;;;8.05;;
71236;SDS011;58984;51.960;5.582;2023-11-19T09:27:23;19.95;;;7.88;;
71236;SDS011;58984;51.960;5.582;2023-11-19T09:29:50;22.55;;;8.18;;
71236;SDS011;58984;51.960;5.582;2023-11-19T09:32:22;19.47;;;7.60;;
71236;SDS011;58984;51.960;5.582;2023-11-19T09:34:48;26.30;;;7.60;;
71236;SDS011;58984;51.960;5.582;2023-11-19T09:37:13;18.45;;;7.60;;
71236;SDS011;58984;51.960;5.582;2023-11-19T09:39:42;14.07;;;6.75;;
71236;SDS011;58984;51.960;5.582;2023-11-19T09:42:53;17.90;;;7.05;;
71236;SDS011;58984;51.960;5.582;2023-11-19T09:45:20;22.23;;;7.43;;
71236;SDS011;58984;51.960;5.582;2023-11-19T09:47:52;18.00;;;6.63;;
71236;SDS011;58984;51.960;5.582;2023-11-19T09:50:19;20.45;;;7.05;;
71236;SDS011;58984;51.960;5.582;2023-11-19T09:52:45;20.98;;;7.25;;
71236;SDS011;58984;51.960;5.582;2023-11-19T09:55:12;19.40;;;7.28;;
71236;SDS011;58984;51.960;5.582;2023-11-19T09:57:38;17.63;;;7.20;;
71236;SDS011;58984;51.960;5.582;2023-11-19T10:00:06;22.70;;;7.20;;
71236;SDS011;58984;51.960;5.582;2023-11-19T10:02:35;24.55;;;8.40;;
71236;SDS011;58984;51.960;5.582;2023-11-19T10:05:06;25.00;;;7.60;;
71236;SDS011;58984;51.960;5.582;2023-11-19T10:07:35;25.02;;;8.63;;
71236;SDS011;58984;51.960;5.582;2023-11-19T10:10:01;20.27;;;7.90;;
71236;SDS011;58984;51.960;5.582;2023-11-19T10:12:30;17.42;;;6.97;;
71236;SDS011;58984;51.960;5.582;2023-11-19T10:14:57;23.15;;;7.75;;
71236;SDS011;58984;51.960;5.582;2023-11-19T10:17:32;21.48;;;7.38;;
71236;SDS011;58984;51.960;5.582;2023-11-19T10:19:59;19.67;;;7.20;;
71236;SDS011;58984;51.960;5.582;2023-11-19T10:22:24;20.80;;;7.78;;
71236;SDS011;58984;51.960;5.582;2023-11-19T10:24:51;20.55;;;7.53;;
71236;SDS011;58984;51.960;5.582;2023-11-19T10:27:17;22.92;;;7.50;;
71236;SDS011;58984;51.960;5.582;2023-11-19T10:29:46;20.02;;;6.95;;
71236;SDS011;58984;51.960;5.582;2023-11-19T10:32:34;24.05;;;8.40;;
71236;SDS011;58984;51.960;5.582;2023-11-19T10:35:05;20.90;;;7.65;;
71236;SDS011;58984;51.960;5.582;2023-11-19T10:39:57;19.33;;;7.40;;
71236;SDS011;58984;51.960;5.582;2023-11-19T10:42:23;18.77;;;7.25;;
71236;SDS011;58984;51.960;5.582;2023-11-19T10:44:49;14.90;;;7.07;;
71236;SDS011;58984;51.960;5.582;2023-11-19T10:47:15;21.27;;;7.60;;
71236;SDS011;58984;51.960;5.582;2023-11-19T10:49:44;24.25;;;6.82;;
71236;SDS011;58984;51.960;5.582;2023-11-19T10:52:17;17.40;;;7.05;;
71236;SDS011;58984;51.960;5.582;2023-11-19T10:54:49;15.05;;;6.78;;
71236;SDS011;58984;51.960;5.582;2023-11-19T10:59:50;17.27;;;7.13;;
71236;SDS011;58984;51.960;5.582;2023-11-19T11:02:37;25.42;;;7.35;;
71236;SDS011;58984;51.960;5.582;2023-11-19T11:05:11;16.83;;;7.22;;
71236;SDS011;58984;51.960;5.582;2023-11-19T11:07:39;16.65;;;7.90;;
71236;SDS011;58984;51.960;5.582;2023-11-19T11:10:07;18.35;;;6.90;;
71236;SDS011;58984;51.960;5.582;2023-11-19T11:12:35;19.73;;;6.82;;
71236;SDS011;58984;51.960;5.582;2023-11-19T11:15:03;14.75;;;6.47;;
71236;SDS011;58984;51.960;5.582;2023-11-19T11:17:30;21.45;;;7.15;;
71236;SDS011;58984;51.960;5.582;2023-11-19T11:19:58;27.70;;;7.70;;
71236;SDS011;58984;51.960;5.582;2023-11-19T11:22:24;19.35;;;7.22;;
71236;SDS011;58984;51.960;5.582;2023-11-19T11:25:08;20.30;;;7.18;;
71236;SDS011;58984;51.960;5.582;2023-11-19T11:28:01;18.42;;;7.18;;
71236;SDS011;58984;51.960;5.582;2023-11-19T11:30:40;24.63;;;7.32;;
71236;SDS011;58984;51.960;5.582;2023-11-19T11:33:26;27.88;;;8.38;;
71236;SDS011;58984;51.960;5.582;2023-11-19T11:36:22;20.02;;;7.50;;
71236;SDS011;58984;51.960;5.582;2023-11-19T11:38:48;19.30;;;8.18;;
71236;SDS011;58984;51.960;5.582;2023-11-19T11:41:15;21.40;;;6.65;;
71236;SDS011;58984;51.960;5.582;2023-11-19T11:43:47;18.70;;;6.78;;
71236;SDS011;58984;51.960;5.582;2023-11-19T11:48:59;14.43;;;6.40;;
71236;SDS011;58984;51.960;5.582;2023-11-19T11:54:31;17.60;;;7.80;;
71236;SDS011;58984;51.960;5.582;2023-11-19T11:57:07;19.50;;;7.30;;
71236;SDS011;58984;51.960;5.582;2023-11-19T12:02:08;16.70;;;6.33;;
71236;SDS011;58984;51.960;5.582;2023-11-19T12:04:36;17.10;;;5.88;;
71236;SDS011;58984;51.960;5.582;2023-11-19T12:09:41;13.90;;;6.30;;
71236;SDS011;58984;51.960;5.582;2023-11-19T12:12:28;18.60;;;5.63;;
71236;SDS011;58984;51.960;5.582;2023-11-19T12:17:42;19.33;;;6.53;;
71236;SDS011;58984;51.960;5.582;2023-11-19T12:20:18;16.27;;;5.55;;
71236;SDS011;58984;51.960;5.582;2023-11-19T12:22:53;14.55;;;5.85;;
71236;SDS011;58984;51.960;5.582;2023-11-19T12:25:19;13.52;;;5.53;;
71236;SDS011;58984;51.960;5.582;2023-11-19T12:27:47;18.30;;;6.53;;
71236;SDS011;58984;51.960;5.582;2023-11-19T12:30:20;16.00;;;5.88;;
71236;SDS011;58984;51.960;5.582;2023-11-19T12:32:54;16.65;;;5.90;;
71236;SDS011;58984;51.960;5.582;2023-11-19T12:35:23;15.63;;;5.57;;
71236;SDS011;58984;51.960;5.582;2023-11-19T12:37:49;22.35;;;5.72;;
71236;SDS011;58984;51.960;5.582;2023-11-19T12:40:19;17.73;;;5.25;;
71236;SDS011;58984;51.960;5.582;2023-11-19T12:42:49;13.05;;;5.25;;
71236;SDS011;58984;51.960;5.582;2023-11-19T12:45:16;13.55;;;6.30;;
71236;SDS011;58984;51.960;5.582;2023-11-19T12:47:46;16.02;;;5.72;;
71236;SDS011;58984;51.960;5.582;2023-11-19T12:50:14;18.63;;;6.88;;
71236;SDS011;58984;51.960;5.582;2023-11-19T12:52:42;13.95;;;5.15;;
71236;SDS011;58984;51.960;5.582;2023-11-19T12:55:26;15.20;;;5.65;;
71236;SDS011;58984;51.960;5.582;2023-11-19T12:57:53;12.23;;;6.65;;
71236;SDS011;58984;51.960;5.582;2023-11-19T13:00:26;16.13;;;6.07;;
71236;SDS011;58984;51.960;5.582;2023-11-19T13:02:56;15.10;;;5.72;;
71236;SDS011;58984;51.960;5.582;2023-11-19T13:05:32;12.60;;;6.07;;
71236;SDS011;58984;51.960;5.582;2023-11-19T13:08:03;15.38;;;5.93;;
71236;SDS011;58984;51.960;5.582;2023-11-19T13:10:30;15.45;;;5.85;;
71236;SDS011;58984;51.960;5.582;2023-11-19T13:13:14;21.63;;;6.43;;
71236;SDS011;58984;51.960;5.582;2023-11-19T13:15:43;22.98;;;5.68;;
71236;SDS011;58984;51.960;5.582;2023-11-19T13:18:10;15.35;;;6.05;;
71236;SDS011;58984;51.960;5.582;2023-11-19T13:20:35;13.80;;;6.03;;
71236;SDS011;58984;51.960;5.582;2023-11-19T13:23:02;16.20;;;6.28;;
71236;SDS011;58984;51.960;5.582;2023-11-19T13:25:34;16.40;;;6.22;;
71236;SDS011;58984;51.960;5.582;2023-11-19T13:28:03;19.13;;;7.35;;
71236;SDS011;58984;51.960;5.582;2023-11-19T13:30:34;17.70;;;6.90;;
71236;SDS011;58984;51.960;5.582;2023-11-19T13:33:00;12.45;;;6.20;;
71236;SDS011;58984;51.960;5.582;2023-11-19T13:35:26;22.08;;;6.38;;
71236;SDS011;58984;51.960;5.582;2023-11-19T13:37:52;19.60;;;5.57;;
71236;SDS011;58984;51.960;5.582;2023-11-19T13:40:19;16.58;;;6.63;;
71236;SDS011;58984;51.960;5.582;2023-11-19T13:42:44;16.27;;;5.97;;
71236;SDS011;58984;51.960;5.582;2023-11-19T13:45:14;14.63;;;6.40;;
71236;SDS011;58984;51.960;5.582;2023-11-19T13:47:40;16.08;;;6.93;;
71236;SDS011;58984;51.960;5.582;2023-11-19T13:50:11;11.82;;;6.15;;
71236;SDS011;58984;51.960;5.582;2023-11-19T13:52:41;20.90;;;6.95;;
71236;SDS011;58984;51.960;5.582;2023-11-19T13:55:08;17.25;;;6.10;;
71236;SDS011;58984;51.960;5.582;2023-11-19T13:57:44;12.07;;;5.95;;
71236;SDS011;58984;51.960;5.582;2023-11-19T14:00:16;14.93;;;5.65;;
71236;SDS011;58984;51.960;5.582;2023-11-19T14:02:45;13.02;;;5.68;;
71236;SDS011;58984;51.960;5.582;2023-11-19T14:05:14;14.60;;;5.28;;
71236;SDS011;58984;51.960;5.582;2023-11-19T14:07:45;15.75;;;5.47;;
71236;SDS011;58984;51.960;5.582;2023-11-19T14:10:22;14.73;;;5.97;;
71236;SDS011;58984;51.960;5.582;2023-11-19T14:12:48;13.10;;;6.07;;
71236;SDS011;58984;51.960;5.582;2023-11-19T14:15:16;12.13;;;5.65;;
71236;SDS011;58984;51.960;5.582;2023-11-19T14:18:01;12.05;;;5.65;;
71236;SDS011;58984;51.960;5.582;2023-11-19T14:20:27;12.57;;;5.57;;
71236;SDS011;58984;51.960;5.582;2023-11-19T14:23:02;13.20;;;5.43;;
71236;SDS011;58984;51.960;5.582;2023-11-19T14:25:30;19.50;;;5.90;;
71236;SDS011;58984;51.960;5.582;2023-11-19T14:27:59;15.65;;;5.95;;
71236;SDS011;58984;51.960;5.582;2023-11-19T14:30:24;15.27;;;5.65;;
71236;SDS011;58984;51.960;5.582;2023-11-19T14:32:53;15.38;;;5.82;;
71236;SDS011;58984;51.960;5.582;2023-11-19T14:35:31;14.70;;;5.10;;
71236;SDS011;58984;51.960;5.582;2023-11-19T14:38:01;17.50;;;6.07;;
71236;SDS011;58984;51.960;5.582;2023-11-19T14:40:30;14.07;;;5.32;;
71236;SDS011;58984;51.960;5.582;2023-11-19T14:42:56;15.85;;;5.95;;
71236;SDS011;58984;51.960;5.582;2023-11-19T14:45:21;12.77;;;5.38;;
71236;SDS011;58984;51.960;5.582;2023-11-19T14:47:49;11.80;;;4.85;;
71236;SDS011;58984;51.960;5.582;2023-11-19T14:50:15;12.75;;;5.32;;
71236;SDS011;58984;51.960;5.582;2023-11-19T14:56:12;15.52;;;6.15;;
71236;SDS011;58984;51.960;5.582;2023-11-19T14:58:39;20.25;;;6.10;;
71236;SDS011;58984;51.960;5.582;2023-11-19T15:01:11;15.63;;;5.68;;
71236;SDS011;58984;51.960;5.582;2023-11-19T15:03:37;13.60;;;5.10;;
71236;SDS011;58984;51.960;5.582;2023-11-19T15:06:03;20.92;;;6.30;;
71236;SDS011;58984;51.960;5.582;2023-11-19T15:08:29;15.85;;;6.53;;
71236;SDS011;58984;51.960;5.582;2023-11-19T15:11:06;17.23;;;6.13;;